createdAt,value
2022-10-04T00:04:27.364Z,77.3
2022-10-04T00:10:54.848Z,77
2022-10-04T00:16:58.514Z,76.8
2022-10-04T00:22:36.384Z,77
2022-10-04T00:28:56.043Z,77.2
2022-10-04T00:34:36.425Z,77.2
2022-10-04T00:40:11.936Z,77.2
2022-10-04T00:45:47.233Z,77.3
2022-10-04T00:51:22.859Z,77.5
2022-10-04T00:56:57.696Z,77.6
2022-10-04T01:02:40.360Z,77.8
2022-10-04T01:08:38.661Z,77.8
2022-10-04T01:14:22.547Z,78
2022-10-04T01:20:16.413Z,78
2022-10-04T01:25:57.509Z,77.9
2022-10-04T01:31:53.940Z,77.8
2022-10-04T01:37:29.749Z,77.7
2022-10-04T01:43:37.653Z,77.8
2022-10-04T01:49:19.897Z,77.5
2022-10-04T01:54:54.719Z,77.6
2022-10-04T02:00:38.485Z,77.4
2022-10-04T02:06:14.134Z,77.6
2022-10-04T02:11:52.748Z,77.8
2022-10-04T02:17:34.720Z,78
2022-10-04T02:23:09.840Z,78
2022-10-04T02:28:45.371Z,78.2
2022-10-04T02:34:30.793Z,78
2022-10-04T02:40:15.923Z,78.2
2022-10-04T02:45:51.699Z,78.3
2022-10-04T02:51:29.464Z,78.4
2022-10-04T02:57:12.141Z,78.5
2022-10-04T03:02:54.842Z,78.2
2022-10-04T03:08:41.392Z,78.1
2022-10-04T03:14:26.682Z,78.1
2022-10-04T03:20:17.009Z,78.4
2022-10-04T03:26:12.704Z,78.6
2022-10-04T03:31:47.751Z,78.8
2022-10-04T03:37:23.937Z,78.6
2022-10-04T03:43:21.616Z,78.6
2022-10-04T03:48:56.492Z,78.7
2022-10-04T03:54:31.342Z,78.6
2022-10-04T04:00:10.440Z,78.5
2022-10-04T04:05:47.815Z,78.7
2022-10-04T04:11:51.278Z,78.6
2022-10-04T04:17:55.179Z,78.7
2022-10-04T04:23:32.681Z,78.8
2022-10-04T04:29:07.939Z,78.9
2022-10-04T04:34:42.812Z,79.3
2022-10-04T04:40:20.324Z,79.6
2022-10-04T04:46:28.228Z,79.7
2022-10-04T04:52:05.450Z,79.8
2022-10-04T04:57:40.355Z,79.9
2022-10-04T05:03:15.529Z,80
2022-10-04T05:08:50.209Z,80
2022-10-04T05:14:25.180Z,79.7
2022-10-04T05:20:08.709Z,79.1
2022-10-04T05:25:44.636Z,79.1
2022-10-04T05:31:41.250Z,79.2
2022-10-04T05:37:19.915Z,79.3
2022-10-04T05:43:04.032Z,79.5
2022-10-04T05:48:39.036Z,79.7
2022-10-04T05:54:13.972Z,79.9
2022-10-04T05:59:48.739Z,79.5
2022-10-04T06:05:29.461Z,79.1
2022-10-04T06:11:08.148Z,78.9
2022-10-04T06:16:43.468Z,78.6
2022-10-04T06:22:19.201Z,78.3
2022-10-04T06:27:54.384Z,78.3
2022-10-04T06:33:30.963Z,78.4
2022-10-04T06:39:06.095Z,78.6
2022-10-04T06:44:46.732Z,78.7
2022-10-04T06:50:21.984Z,78.6
2022-10-04T06:55:56.828Z,80
2022-10-04T07:01:32.216Z,80.9
2022-10-04T07:07:09.818Z,81.1
2022-10-04T07:12:44.741Z,81.2
2022-10-04T07:18:19.606Z,81.4
2022-10-04T07:23:54.863Z,81.4
2022-10-04T07:29:30.207Z,81.3
2022-10-04T07:35:04.947Z,81.9
2022-10-04T07:40:48.285Z,81.6
2022-10-04T07:46:23.516Z,83.5
2022-10-04T07:52:07.442Z,81.9
2022-10-04T07:57:42.676Z,82
2022-10-04T08:03:18.234Z,82.3
2022-10-04T08:08:53.769Z,82.1
2022-10-04T08:14:34.630Z,81.7
2022-10-04T08:20:34.264Z,81.9
2022-10-04T08:26:09.457Z,82
2022-10-04T08:31:45.007Z,81.4
2022-10-04T08:37:20.039Z,80.3
2022-10-04T08:42:57.380Z,81.9
2022-10-04T08:48:32.676Z,80.2
2022-10-04T08:54:08.313Z,80.4
2022-10-04T08:59:43.328Z,79.1
2022-10-04T09:05:18.407Z,79.4
2022-10-04T09:11:27.352Z,79.1
2022-10-04T09:17:02.439Z,78.6
2022-10-04T09:22:37.775Z,78.1
2022-10-04T09:29:45.941Z,78.6
2022-10-04T09:35:25.557Z,81.2
2022-10-04T09:41:06.421Z,82.2
2022-10-04T09:46:43.668Z,82.4
2022-10-04T09:52:31.731Z,82.2
2022-10-04T09:58:24.674Z,82
2022-10-04T10:04:00.831Z,81.7
2022-10-04T10:09:41.803Z,81.4
2022-10-04T10:15:33.748Z,81.1
2022-10-04T10:21:28.610Z,80.9
2022-10-04T10:27:11.701Z,80.5
2022-10-04T10:32:46.580Z,80.3
2022-10-04T10:38:24.535Z,79.9
2022-10-04T10:44:07.330Z,79.6
2022-10-04T10:50:03.699Z,79.2
2022-10-04T10:56:00.034Z,78.6
2022-10-04T11:01:35.606Z,78.4
2022-10-04T11:07:11.886Z,78.4
2022-10-04T11:12:49.465Z,77.5
2022-10-04T11:18:25.313Z,77.4
2022-10-04T11:24:21.332Z,77.3
2022-10-04T11:29:57.527Z,76.9
2022-10-04T11:35:32.502Z,76.6
2022-10-04T11:41:11.419Z,75.7
2022-10-04T11:46:47.645Z,75.6
2022-10-04T11:52:48.470Z,75.6
2022-10-04T11:58:47.374Z,75.4
2022-10-04T12:04:41.059Z,74.7
2022-10-04T12:10:16.924Z,74.1
2022-10-04T12:15:52.561Z,72.7
2022-10-04T12:21:28.233Z,72.5
2022-10-04T12:27:27.100Z,72.3
2022-10-04T12:33:01.998Z,71.7
2022-10-04T12:38:36.827Z,70.2
2022-10-04T12:44:22.980Z,69.3
2022-10-04T12:50:09.905Z,68.7
2022-10-04T12:55:45.468Z,68.2
2022-10-04T13:01:25.434Z,68.1
2022-10-04T13:07:23.350Z,60.1
2022-10-04T13:14:01.621Z,59.4
2022-10-04T13:19:37.609Z,56.6
2022-10-04T13:25:16.887Z,55.5
2022-10-04T13:30:52.206Z,51.2
2022-10-04T13:36:27.107Z,51
2022-10-04T13:42:49.468Z,48.4
2022-10-04T13:48:29.108Z,47.7
2022-10-04T13:54:14.069Z,44.5
2022-10-04T13:59:54.023Z,41.1
2022-10-04T14:05:29.032Z,34.7
2022-10-04T14:11:25.873Z,25.7
2022-10-04T14:17:00.964Z,23.8
2022-10-04T14:22:36.131Z,22.1
2022-10-04T14:28:32.658Z,20
2022-10-04T14:34:11.987Z,19.4
2022-10-04T14:39:52.538Z,18.3
2022-10-04T14:45:36.203Z,17.4
2022-10-04T14:51:16.219Z,18.6
2022-10-04T14:56:55.647Z,26.6
2022-10-04T15:02:32.648Z,31.5
2022-10-04T15:08:13.677Z,35.1
2022-10-04T15:14:13.594Z,40.6
2022-10-04T15:19:47.502Z,40.2
2022-10-04T15:25:30.718Z,39.3
2022-10-04T15:31:34.198Z,39.2
2022-10-04T15:37:35.041Z,41.1
2022-10-04T15:43:59.552Z,43.6
2022-10-04T15:50:15.604Z,47.1
2022-10-04T15:56:05.304Z,49.3
2022-10-04T16:01:50.205Z,49.1
2022-10-04T16:07:36.963Z,51.3
2022-10-04T16:13:57.584Z,52.2
2022-10-04T16:19:35.199Z,54
2022-10-04T16:25:14.642Z,54.5
2022-10-04T16:30:53.796Z,54.8
2022-10-04T16:36:33.573Z,53.2
2022-10-04T16:42:16.414Z,56
2022-10-04T16:47:55.334Z,54
2022-10-04T16:53:37.804Z,54.5
2022-10-04T16:59:38.831Z,54.9
2022-10-04T17:05:20.048Z,57
2022-10-04T17:11:21.293Z,52.7
2022-10-04T17:16:59.781Z,54.5
2022-10-04T17:22:39.824Z,54.5
2022-10-04T17:28:19.084Z,54.2
2022-10-04T17:33:58.749Z,54.3
2022-10-04T17:39:38.822Z,55
2022-10-04T17:45:18.012Z,57.2
2022-10-04T17:50:57.444Z,57.9
2022-10-04T17:56:36.314Z,60.9
2022-10-04T18:02:17.875Z,59.6
2022-10-04T18:07:58.591Z,59.6
2022-10-04T18:13:59.565Z,57.6
2022-10-04T18:19:37.514Z,57.4
2022-10-04T18:25:15.460Z,57.5
2022-10-04T18:31:10.099Z,57.8
2022-10-04T18:36:48.188Z,58.3
2022-10-04T18:42:23.670Z,58.4
2022-10-04T18:48:27.101Z,58.6
2022-10-04T18:54:06.157Z,59
2022-10-04T18:59:43.969Z,59.2
2022-10-04T19:05:39.561Z,59.8
2022-10-04T19:11:18.823Z,60.3
2022-10-04T19:16:54.003Z,60.7
2022-10-04T19:23:09.269Z,61.1
2022-10-04T19:28:44.261Z,61.4
2022-10-04T19:34:28.349Z,61.7
2022-10-04T19:40:03.222Z,62.3
2022-10-04T19:46:19.545Z,62.7
2022-10-04T19:52:00.770Z,63
2022-10-04T19:57:38.636Z,63.7
2022-10-04T20:03:16.723Z,64.3
2022-10-04T20:09:03.152Z,65
2022-10-04T20:14:46.204Z,65.4
2022-10-04T20:20:25.983Z,65.8
2022-10-04T20:26:04.262Z,66.1
2022-10-04T20:32:00.129Z,66.6
2022-10-04T20:37:36.610Z,66.9
2022-10-04T20:43:20.276Z,67
2022-10-04T20:49:06.300Z,67.4
2022-10-04T20:54:41.606Z,67.7
2022-10-04T21:00:28.636Z,68.1
2022-10-04T21:06:03.493Z,68.4
2022-10-04T21:11:52.832Z,68.6
2022-10-04T21:17:31.942Z,68.8
2022-10-04T21:23:06.841Z,69
2022-10-04T21:28:41.990Z,69.2
2022-10-04T21:34:52.851Z,69.3
2022-10-04T21:40:34.088Z,69.3
2022-10-04T21:46:20.140Z,69.7
2022-10-04T21:51:56.429Z,69.9
2022-10-04T21:57:39.148Z,70
2022-10-04T22:03:14.102Z,70.2
2022-10-04T22:09:23.226Z,70.4
2022-10-04T22:14:57.892Z,70.7
2022-10-04T22:20:32.824Z,70.9
2022-10-04T22:26:35.483Z,70.8
2022-10-04T22:32:24.470Z,70.7
2022-10-04T22:38:12.437Z,70.7
2022-10-04T22:44:08.233Z,70.6
2022-10-04T22:49:49.587Z,70.5
2022-10-04T22:55:46.560Z,70.7
2022-10-04T23:01:22.764Z,70.8
2022-10-04T23:07:04.279Z,70.9
2022-10-04T23:13:03.083Z,71.1
2022-10-04T23:18:36.896Z,71.2
2022-10-04T23:24:11.689Z,71.1
2022-10-04T23:29:52.594Z,71.3
2022-10-04T23:35:36.207Z,71.4
2022-10-04T23:43:08.430Z,71.4
2022-10-04T23:48:43.604Z,71.7
2022-10-04T23:54:21.506Z,71.8
2022-10-04T23:59:57.577Z,71.8
